sensor_id;sensor_type;location;lat;lon;timestamp;P1;durP1;ratioP1;P2;durP2;ratioP2
11582;SDS011;34299;50.820;4.548;2023-05-31T00:00:06;4.50;;;4.00;;
11582;SDS011;34299;50.820;4.548;2023-05-31T00:02:33;8.47;;;4.10;;
11582;SDS011;34299;50.820;4.548;2023-05-31T00:05:00;6.10;;;3.90;;
11582;SDS011;34299;50.820;4.548;2023-05-31T00:07:28;7.13;;;4.20;;
11582;SDS011;34299;50.820;4.548;2023-05-31T00:09:55;4.50;;;3.50;;
11582;SDS011;34299;50.820;4.548;2023-05-31T00:12:23;6.07;;;3.80;;
11582;SDS011;34299;50.820;4.548;2023-05-31T00:14:51;4.57;;;3.57;;
11582;SDS011;34299;50.820;4.548;2023-05-31T00:17:19;4.50;;;3.47;;
11582;SDS011;34299;50.820;4.548;2023-05-31T00:19:46;4.93;;;3.77;;
11582;SDS011;34299;50.820;4.548;2023-05-31T00:22:13;6.63;;;4.00;;
11582;SDS011;34299;50.820;4.548;2023-05-31T00:24:42;4.97;;;3.97;;
11582;SDS011;34299;50.820;4.548;2023-05-31T00:27:09;3.87;;;3.40;;
11582;SDS011;34299;50.820;4.548;2023-05-31T00:29:36;4.43;;;3.10;;
11582;SDS011;34299;50.820;4.548;2023-05-31T00:32:04;5.93;;;4.03;;
11582;SDS011;34299;50.820;4.548;2023-05-31T00:34:32;8.23;;;4.30;;
11582;SDS011;34299;50.820;4.548;2023-05-31T00:37:01;7.07;;;3.60;;
11582;SDS011;34299;50.820;4.548;2023-05-31T00:39:28;4.13;;;3.47;;
11582;SDS011;34299;50.820;4.548;2023-05-31T00:41:55;4.60;;;3.80;;
11582;SDS011;34299;50.820;4.548;2023-05-31T00:44:23;4.03;;;3.50;;
11582;SDS011;34299;50.820;4.548;2023-05-31T00:46:50;5.03;;;4.07;;
11582;SDS011;34299;50.820;4.548;2023-05-31T00:49:18;5.93;;;4.07;;
11582;SDS011;34299;50.820;4.548;2023-05-31T00:51:47;5.47;;;3.87;;
11582;SDS011;34299;50.820;4.548;2023-05-31T00:54:15;6.10;;;4.43;;
11582;SDS011;34299;50.820;4.548;2023-05-31T00:56:42;4.90;;;3.90;;
11582;SDS011;34299;50.820;4.548;2023-05-31T00:59:10;5.27;;;3.77;;
11582;SDS011;34299;50.820;4.548;2023-05-31T01:01:37;6.83;;;4.03;;
11582;SDS011;34299;50.820;4.548;2023-05-31T01:04:07;3.90;;;3.50;;
11582;SDS011;34299;50.820;4.548;2023-05-31T01:06:34;5.83;;;3.40;;
11582;SDS011;34299;50.820;4.548;2023-05-31T01:09:05;6.33;;;4.40;;
11582;SDS011;34299;50.820;4.548;2023-05-31T01:11:40;5.57;;;3.90;;
11582;SDS011;34299;50.820;4.548;2023-05-31T01:14:13;5.40;;;4.17;;
11582;SDS011;34299;50.820;4.548;2023-05-31T01:16:45;6.87;;;4.27;;
11582;SDS011;34299;50.820;4.548;2023-05-31T01:19:20;5.47;;;3.80;;
11582;SDS011;34299;50.820;4.548;2023-05-31T01:21:57;6.63;;;4.20;;
11582;SDS011;34299;50.820;4.548;2023-05-31T01:24:34;5.33;;;4.20;;
11582;SDS011;34299;50.820;4.548;2023-05-31T01:27:09;5.00;;;4.07;;
11582;SDS011;34299;50.820;4.548;2023-05-31T01:29:37;4.17;;;3.77;;
11582;SDS011;34299;50.820;4.548;2023-05-31T01:32:06;6.30;;;4.40;;
11582;SDS011;34299;50.820;4.548;2023-05-31T01:34:34;5.77;;;4.20;;
11582;SDS011;34299;50.820;4.548;2023-05-31T01:37:05;5.10;;;4.03;;
11582;SDS011;34299;50.820;4.548;2023-05-31T01:39:33;5.87;;;4.03;;
11582;SDS011;34299;50.820;4.548;2023-05-31T01:42:00;7.50;;;4.93;;
11582;SDS011;34299;50.820;4.548;2023-05-31T01:44:29;7.73;;;4.50;;
11582;SDS011;34299;50.820;4.548;2023-05-31T01:46:57;5.80;;;4.40;;
11582;SDS011;34299;50.820;4.548;2023-05-31T01:49:24;6.40;;;4.43;;
11582;SDS011;34299;50.820;4.548;2023-05-31T01:51:52;4.93;;;4.43;;
11582;SDS011;34299;50.820;4.548;2023-05-31T01:54:20;6.10;;;4.77;;
11582;SDS011;34299;50.820;4.548;2023-05-31T01:56:47;7.10;;;4.30;;
11582;SDS011;34299;50.820;4.548;2023-05-31T01:59:14;5.53;;;4.57;;
11582;SDS011;34299;50.820;4.548;2023-05-31T02:01:43;5.77;;;4.53;;
11582;SDS011;34299;50.820;4.548;2023-05-31T02:04:11;6.87;;;4.90;;
11582;SDS011;34299;50.820;4.548;2023-05-31T02:06:38;9.17;;;4.83;;
11582;SDS011;34299;50.820;4.548;2023-05-31T02:09:06;6.60;;;4.73;;
11582;SDS011;34299;50.820;4.548;2023-05-31T02:11:33;6.67;;;5.13;;
11582;SDS011;34299;50.820;4.548;2023-05-31T02:14:00;7.30;;;4.80;;
11582;SDS011;34299;50.820;4.548;2023-05-31T02:16:28;6.73;;;4.93;;
11582;SDS011;34299;50.820;4.548;2023-05-31T02:18:56;7.17;;;4.90;;
11582;SDS011;34299;50.820;4.548;2023-05-31T02:21:23;7.57;;;4.97;;
11582;SDS011;34299;50.820;4.548;2023-05-31T02:23:51;6.73;;;4.47;;
11582;SDS011;34299;50.820;4.548;2023-05-31T02:26:18;6.63;;;4.93;;
11582;SDS011;34299;50.820;4.548;2023-05-31T02:28:47;7.23;;;6.20;;
11582;SDS011;34299;50.820;4.548;2023-05-31T02:31:14;6.77;;;4.73;;
11582;SDS011;34299;50.820;4.548;2023-05-31T02:33:41;5.60;;;4.80;;
11582;SDS011;34299;50.820;4.548;2023-05-31T02:36:10;6.80;;;5.13;;
11582;SDS011;34299;50.820;4.548;2023-05-31T02:38:37;5.93;;;4.73;;
11582;SDS011;34299;50.820;4.548;2023-05-31T02:41:04;6.77;;;5.53;;
11582;SDS011;34299;50.820;4.548;2023-05-31T02:43:32;6.30;;;4.87;;
11582;SDS011;34299;50.820;4.548;2023-05-31T02:45:59;6.50;;;4.83;;
11582;SDS011;34299;50.820;4.548;2023-05-31T02:48:27;7.57;;;4.77;;
11582;SDS011;34299;50.820;4.548;2023-05-31T02:50:55;5.93;;;4.63;;
11582;SDS011;34299;50.820;4.548;2023-05-31T02:53:24;8.90;;;5.40;;
11582;SDS011;34299;50.820;4.548;2023-05-31T02:55:51;6.60;;;4.63;;
11582;SDS011;34299;50.820;4.548;2023-05-31T02:58:19;8.50;;;6.20;;
11582;SDS011;34299;50.820;4.548;2023-05-31T03:00:46;8.70;;;5.30;;
11582;SDS011;34299;50.820;4.548;2023-05-31T03:03:14;6.87;;;4.87;;
11582;SDS011;34299;50.820;4.548;2023-05-31T03:05:43;7.23;;;5.50;;
11582;SDS011;34299;50.820;4.548;2023-05-31T03:08:10;8.50;;;5.13;;
11582;SDS011;34299;50.820;4.548;2023-05-31T03:10:39;5.53;;;4.20;;
11582;SDS011;34299;50.820;4.548;2023-05-31T03:13:06;8.47;;;5.30;;
11582;SDS011;34299;50.820;4.548;2023-05-31T03:15:33;9.70;;;5.70;;
11582;SDS011;34299;50.820;4.548;2023-05-31T03:18:02;6.43;;;4.93;;
11582;SDS011;34299;50.820;4.548;2023-05-31T03:20:29;7.60;;;5.90;;
11582;SDS011;34299;50.820;4.548;2023-05-31T03:22:58;5.70;;;4.63;;
11582;SDS011;34299;50.820;4.548;2023-05-31T03:25:25;8.37;;;5.60;;
11582;SDS011;34299;50.820;4.548;2023-05-31T03:27:53;8.17;;;5.90;;
11582;SDS011;34299;50.820;4.548;2023-05-31T03:30:22;7.37;;;5.60;;
11582;SDS011;34299;50.820;4.548;2023-05-31T03:32:49;7.40;;;5.47;;
11582;SDS011;34299;50.820;4.548;2023-05-31T03:35:17;8.03;;;5.80;;
11582;SDS011;34299;50.820;4.548;2023-05-31T03:37:44;5.60;;;5.00;;
11582;SDS011;34299;50.820;4.548;2023-05-31T03:40:11;6.97;;;5.27;;
11582;SDS011;34299;50.820;4.548;2023-05-31T03:42:38;8.43;;;5.17;;
11582;SDS011;34299;50.820;4.548;2023-05-31T03:45:07;7.53;;;5.63;;
11582;SDS011;34299;50.820;4.548;2023-05-31T03:47:34;6.50;;;5.10;;
11582;SDS011;34299;50.820;4.548;2023-05-31T03:50:02;10.23;;;6.03;;
11582;SDS011;34299;50.820;4.548;2023-05-31T03:52:31;7.10;;;5.13;;
11582;SDS011;34299;50.820;4.548;2023-05-31T03:54:59;8.03;;;5.97;;
11582;SDS011;34299;50.820;4.548;2023-05-31T03:57:26;8.57;;;5.90;;
11582;SDS011;34299;50.820;4.548;2023-05-31T03:59:54;7.00;;;5.63;;
11582;SDS011;34299;50.820;4.548;2023-05-31T04:02:22;8.70;;;5.83;;
11582;SDS011;34299;50.820;4.548;2023-05-31T04:04:50;9.67;;;5.80;;
11582;SDS011;34299;50.820;4.548;2023-05-31T04:07:17;8.20;;;6.20;;
11582;SDS011;34299;50.820;4.548;2023-05-31T04:09:44;10.20;;;6.50;;
11582;SDS011;34299;50.820;4.548;2023-05-31T04:12:12;7.67;;;5.53;;
11582;SDS011;34299;50.820;4.548;2023-05-31T04:14:39;10.93;;;6.23;;
11582;SDS011;34299;50.820;4.548;2023-05-31T04:17:06;8.77;;;6.27;;
11582;SDS011;34299;50.820;4.548;2023-05-31T04:19:35;9.93;;;6.10;;
11582;SDS011;34299;50.820;4.548;2023-05-31T04:22:02;8.17;;;6.17;;
11582;SDS011;34299;50.820;4.548;2023-05-31T04:24:29;9.63;;;6.43;;
11582;SDS011;34299;50.820;4.548;2023-05-31T04:26:56;9.57;;;6.93;;
11582;SDS011;34299;50.820;4.548;2023-05-31T04:29:24;10.43;;;7.10;;
11582;SDS011;34299;50.820;4.548;2023-05-31T04:31:51;10.87;;;6.43;;
11582;SDS011;34299;50.820;4.548;2023-05-31T04:34:18;9.30;;;6.53;;
11582;SDS011;34299;50.820;4.548;2023-05-31T04:36:47;10.23;;;7.37;;
11582;SDS011;34299;50.820;4.548;2023-05-31T04:39:16;9.23;;;6.17;;
11582;SDS011;34299;50.820;4.548;2023-05-31T04:41:45;10.07;;;7.07;;
11582;SDS011;34299;50.820;4.548;2023-05-31T04:44:12;9.50;;;6.17;;
11582;SDS011;34299;50.820;4.548;2023-05-31T04:46:39;10.33;;;6.77;;
11582;SDS011;34299;50.820;4.548;2023-05-31T04:49:07;10.70;;;6.97;;
11582;SDS011;34299;50.820;4.548;2023-05-31T04:51:34;12.03;;;7.80;;
11582;SDS011;34299;50.820;4.548;2023-05-31T04:54:03;12.47;;;7.93;;
11582;SDS011;34299;50.820;4.548;2023-05-31T04:56:31;10.63;;;7.43;;
11582;SDS011;34299;50.820;4.548;2023-05-31T04:58:58;11.00;;;6.70;;
11582;SDS011;34299;50.820;4.548;2023-05-31T05:01:25;13.00;;;7.10;;
11582;SDS011;34299;50.820;4.548;2023-05-31T05:03:52;9.70;;;6.70;;
11582;SDS011;34299;50.820;4.548;2023-05-31T05:06:20;11.07;;;7.53;;
11582;SDS011;34299;50.820;4.548;2023-05-31T05:08:47;10.87;;;7.10;;
11582;SDS011;34299;50.820;4.548;2023-05-31T05:11:16;12.43;;;7.83;;
11582;SDS011;34299;50.820;4.548;2023-05-31T05:13:43;12.67;;;7.87;;
11582;SDS011;34299;50.820;4.548;2023-05-31T05:16:10;10.67;;;7.73;;
11582;SDS011;34299;50.820;4.548;2023-05-31T05:18:37;10.70;;;7.17;;
11582;SDS011;34299;50.820;4.548;2023-05-31T05:21:05;11.83;;;8.10;;
11582;SDS011;34299;50.820;4.548;2023-05-31T05:23:32;12.60;;;8.37;;
11582;SDS011;34299;50.820;4.548;2023-05-31T05:26:01;10.70;;;7.63;;
11582;SDS011;34299;50.820;4.548;2023-05-31T05:28:29;14.63;;;8.20;;
11582;SDS011;34299;50.820;4.548;2023-05-31T05:30:56;13.00;;;8.03;;
11582;SDS011;34299;50.820;4.548;2023-05-31T05:33:24;12.53;;;8.47;;
11582;SDS011;34299;50.820;4.548;2023-05-31T05:35:53;11.30;;;8.77;;
11582;SDS011;34299;50.820;4.548;2023-05-31T05:38:21;11.17;;;8.13;;
11582;SDS011;34299;50.820;4.548;2023-05-31T05:40:48;11.03;;;8.30;;
11582;SDS011;34299;50.820;4.548;2023-05-31T05:43:15;13.27;;;8.47;;
11582;SDS011;34299;50.820;4.548;2023-05-31T05:45:44;10.77;;;7.20;;
11582;SDS011;34299;50.820;4.548;2023-05-31T05:48:11;13.43;;;8.83;;
11582;SDS011;34299;50.820;4.548;2023-05-31T05:50:39;11.23;;;7.67;;
11582;SDS011;34299;50.820;4.548;2023-05-31T05:53:07;10.37;;;8.00;;
11582;SDS011;34299;50.820;4.548;2023-05-31T05:55:34;13.10;;;8.37;;
11582;SDS011;34299;50.820;4.548;2023-05-31T05:58:01;15.10;;;9.03;;
11582;SDS011;34299;50.820;4.548;2023-05-31T06:00:28;11.10;;;8.77;;
11582;SDS011;34299;50.820;4.548;2023-05-31T06:02:57;12.67;;;8.57;;
11582;SDS011;34299;50.820;4.548;2023-05-31T06:05:24;14.03;;;9.07;;
11582;SDS011;34299;50.820;4.548;2023-05-31T06:07:51;10.90;;;8.40;;
11582;SDS011;34299;50.820;4.548;2023-05-31T06:10:19;12.43;;;9.07;;
11582;SDS011;34299;50.820;4.548;2023-05-31T06:12:46;11.80;;;8.47;;
11582;SDS011;34299;50.820;4.548;2023-05-31T06:15:13;12.20;;;8.70;;
11582;SDS011;34299;50.820;4.548;2023-05-31T06:17:41;12.13;;;8.30;;
11582;SDS011;34299;50.820;4.548;2023-05-31T06:20:10;14.67;;;8.30;;
11582;SDS011;34299;50.820;4.548;2023-05-31T06:22:37;14.40;;;8.87;;
11582;SDS011;34299;50.820;4.548;2023-05-31T06:25:04;14.47;;;8.33;;
11582;SDS011;34299;50.820;4.548;2023-05-31T06:27:33;16.50;;;8.80;;
11582;SDS011;34299;50.820;4.548;2023-05-31T06:30:00;12.87;;;8.40;;
11582;SDS011;34299;50.820;4.548;2023-05-31T06:32:27;13.83;;;8.70;;
11582;SDS011;34299;50.820;4.548;2023-05-31T06:34:55;11.83;;;7.93;;
11582;SDS011;34299;50.820;4.548;2023-05-31T06:37:24;16.03;;;8.57;;
11582;SDS011;34299;50.820;4.548;2023-05-31T06:39:51;11.77;;;8.23;;
11582;SDS011;34299;50.820;4.548;2023-05-31T06:42:19;10.87;;;7.90;;
11582;SDS011;34299;50.820;4.548;2023-05-31T06:44:46;12.03;;;7.63;;
11582;SDS011;34299;50.820;4.548;2023-05-31T06:47:13;11.17;;;7.30;;
11582;SDS011;34299;50.820;4.548;2023-05-31T06:49:41;13.60;;;7.87;;
11582;SDS011;34299;50.820;4.548;2023-05-31T06:52:08;12.77;;;7.93;;
11582;SDS011;34299;50.820;4.548;2023-05-31T06:54:37;12.93;;;8.70;;
11582;SDS011;34299;50.820;4.548;2023-05-31T06:57:04;11.77;;;7.63;;
11582;SDS011;34299;50.820;4.548;2023-05-31T06:59:32;13.80;;;8.37;;
11582;SDS011;34299;50.820;4.548;2023-05-31T07:01:59;11.00;;;8.27;;
11582;SDS011;34299;50.820;4.548;2023-05-31T07:04:27;10.20;;;7.47;;
11582;SDS011;34299;50.820;4.548;2023-05-31T07:06:54;13.80;;;7.43;;
11582;SDS011;34299;50.820;4.548;2023-05-31T07:09:21;11.83;;;7.07;;
11582;SDS011;34299;50.820;4.548;2023-05-31T07:11:50;11.03;;;7.57;;
11582;SDS011;34299;50.820;4.548;2023-05-31T07:14:17;11.40;;;8.17;;
11582;SDS011;34299;50.820;4.548;2023-05-31T07:16:44;10.67;;;6.83;;
11582;SDS011;34299;50.820;4.548;2023-05-31T07:19:11;13.63;;;7.50;;
11582;SDS011;34299;50.820;4.548;2023-05-31T07:21:38;11.13;;;6.43;;
11582;SDS011;34299;50.820;4.548;2023-05-31T07:24:06;12.77;;;6.97;;
11582;SDS011;34299;50.820;4.548;2023-05-31T07:26:35;10.97;;;6.43;;
11582;SDS011;34299;50.820;4.548;2023-05-31T07:29:03;13.13;;;7.53;;
11582;SDS011;34299;50.820;4.548;2023-05-31T07:31:30;11.03;;;7.00;;
11582;SDS011;34299;50.820;4.548;2023-05-31T07:33:58;10.57;;;7.00;;
11582;SDS011;34299;50.820;4.548;2023-05-31T07:36:25;11.57;;;7.17;;
11582;SDS011;34299;50.820;4.548;2023-05-31T07:38:52;10.40;;;7.10;;
11582;SDS011;34299;50.820;4.548;2023-05-31T07:41:19;9.60;;;6.87;;
11582;SDS011;34299;50.820;4.548;2023-05-31T07:43:47;7.60;;;6.03;;
11582;SDS011;34299;50.820;4.548;2023-05-31T07:46:16;10.23;;;7.40;;
11582;SDS011;34299;50.820;4.548;2023-05-31T07:48:44;8.90;;;6.27;;
11582;SDS011;34299;50.820;4.548;2023-05-31T07:51:11;9.97;;;6.70;;
11582;SDS011;34299;50.820;4.548;2023-05-31T07:53:38;8.57;;;6.20;;
11582;SDS011;34299;50.820;4.548;2023-05-31T07:56:06;10.83;;;6.13;;
11582;SDS011;34299;50.820;4.548;2023-05-31T07:58:33;10.07;;;6.17;;
11582;SDS011;34299;50.820;4.548;2023-05-31T08:01:01;9.83;;;5.87;;
11582;SDS011;34299;50.820;4.548;2023-05-31T08:03:30;9.53;;;6.83;;
11582;SDS011;34299;50.820;4.548;2023-05-31T08:05:58;13.27;;;6.17;;
11582;SDS011;34299;50.820;4.548;2023-05-31T08:08:25;14.30;;;6.53;;
11582;SDS011;34299;50.820;4.548;2023-05-31T08:10:52;9.50;;;5.47;;
11582;SDS011;34299;50.820;4.548;2023-05-31T08:13:19;8.60;;;6.27;;
11582;SDS011;34299;50.820;4.548;2023-05-31T08:15:48;9.10;;;5.63;;
11582;SDS011;34299;50.820;4.548;2023-05-31T08:18:17;8.07;;;5.80;;
11582;SDS011;34299;50.820;4.548;2023-05-31T08:20:45;6.53;;;5.43;;
11582;SDS011;34299;50.820;4.548;2023-05-31T08:23:16;10.40;;;5.73;;
11582;SDS011;34299;50.820;4.548;2023-05-31T08:25:44;10.20;;;6.33;;
11582;SDS011;34299;50.820;4.548;2023-05-31T08:28:11;8.80;;;5.17;;
11582;SDS011;34299;50.820;4.548;2023-05-31T08:30:38;9.30;;;5.40;;
11582;SDS011;34299;50.820;4.548;2023-05-31T08:33:05;8.30;;;5.60;;
11582;SDS011;34299;50.820;4.548;2023-05-31T08:35:33;6.47;;;5.20;;
11582;SDS011;34299;50.820;4.548;2023-05-31T08:38:01;10.07;;;5.37;;
11582;SDS011;34299;50.820;4.548;2023-05-31T08:40:29;9.10;;;4.57;;
11582;SDS011;34299;50.820;4.548;2023-05-31T08:42:58;9.47;;;5.30;;
11582;SDS011;34299;50.820;4.548;2023-05-31T08:45:26;8.87;;;4.93;;
11582;SDS011;34299;50.820;4.548;2023-05-31T08:47:57;8.53;;;5.47;;
11582;SDS011;34299;50.820;4.548;2023-05-31T08:50:25;10.57;;;4.87;;
11582;SDS011;34299;50.820;4.548;2023-05-31T08:52:53;7.57;;;4.47;;
11582;SDS011;34299;50.820;4.548;2023-05-31T08:55:22;8.30;;;4.80;;
11582;SDS011;34299;50.820;4.548;2023-05-31T08:57:50;7.77;;;4.87;;
11582;SDS011;34299;50.820;4.548;2023-05-31T09:00:19;7.03;;;4.53;;
11582;SDS011;34299;50.820;4.548;2023-05-31T09:02:47;8.40;;;4.70;;
11582;SDS011;34299;50.820;4.548;2023-05-31T09:05:15;8.30;;;4.70;;
11582;SDS011;34299;50.820;4.548;2023-05-31T09:07:43;7.17;;;4.87;;
11582;SDS011;34299;50.820;4.548;2023-05-31T09:10:12;12.47;;;5.00;;
11582;SDS011;34299;50.820;4.548;2023-05-31T09:12:42;5.80;;;4.27;;
11582;SDS011;34299;50.820;4.548;2023-05-31T09:15:11;7.00;;;4.57;;
11582;SDS011;34299;50.820;4.548;2023-05-31T09:17:41;7.37;;;4.80;;
11582;SDS011;34299;50.820;4.548;2023-05-31T09:20:09;5.60;;;4.27;;
11582;SDS011;34299;50.820;4.548;2023-05-31T09:22:37;7.03;;;4.47;;
11582;SDS011;34299;50.820;4.548;2023-05-31T09:25:04;5.40;;;3.87;;
11582;SDS011;34299;50.820;4.548;2023-05-31T09:27:35;7.33;;;5.03;;
11582;SDS011;34299;50.820;4.548;2023-05-31T09:30:08;7.13;;;4.43;;
11582;SDS011;34299;50.820;4.548;2023-05-31T09:32:35;8.43;;;5.03;;
11582;SDS011;34299;50.820;4.548;2023-05-31T09:35:09;7.07;;;4.27;;
11582;SDS011;34299;50.820;4.548;2023-05-31T09:37:41;8.13;;;4.07;;
11582;SDS011;34299;50.820;4.548;2023-05-31T09:40:09;6.23;;;3.83;;
11582;SDS011;34299;50.820;4.548;2023-05-31T09:42:36;8.00;;;4.23;;
11582;SDS011;34299;50.820;4.548;2023-05-31T09:45:04;8.30;;;4.20;;
11582;SDS011;34299;50.820;4.548;2023-05-31T09:47:33;7.77;;;4.63;;
11582;SDS011;34299;50.820;4.548;2023-05-31T09:50:03;6.83;;;3.97;;
11582;SDS011;34299;50.820;4.548;2023-05-31T09:52:31;6.00;;;3.87;;
11582;SDS011;34299;50.820;4.548;2023-05-31T09:55:04;6.27;;;3.50;;
11582;SDS011;34299;50.820;4.548;2023-05-31T09:57:32;6.77;;;3.90;;
11582;SDS011;34299;50.820;4.548;2023-05-31T10:00:05;5.90;;;3.43;;
11582;SDS011;34299;50.820;4.548;2023-05-31T10:02:39;5.07;;;4.03;;
11582;SDS011;34299;50.820;4.548;2023-05-31T10:05:07;7.90;;;3.97;;
11582;SDS011;34299;50.820;4.548;2023-05-31T10:07:35;8.37;;;3.37;;
11582;SDS011;34299;50.820;4.548;2023-05-31T10:10:03;7.60;;;4.17;;
11582;SDS011;34299;50.820;4.548;2023-05-31T10:12:31;7.83;;;3.40;;
11582;SDS011;34299;50.820;4.548;2023-05-31T10:15:00;4.70;;;3.73;;
11582;SDS011;34299;50.820;4.548;2023-05-31T10:17:29;4.83;;;3.10;;
11582;SDS011;34299;50.820;4.548;2023-05-31T10:20:02;9.60;;;4.13;;
11582;SDS011;34299;50.820;4.548;2023-05-31T10:22:31;6.07;;;3.40;;
11582;SDS011;34299;50.820;4.548;2023-05-31T10:25:02;6.07;;;3.10;;
11582;SDS011;34299;50.820;4.548;2023-05-31T10:27:32;4.10;;;2.87;;
11582;SDS011;34299;50.820;4.548;2023-05-31T10:30:01;4.70;;;2.90;;
11582;SDS011;34299;50.820;4.548;2023-05-31T10:32:32;5.67;;;2.50;;
11582;SDS011;34299;50.820;4.548;2023-05-31T10:35:01;6.00;;;3.17;;
11582;SDS011;34299;50.820;4.548;2023-05-31T10:37:29;6.47;;;3.33;;
11582;SDS011;34299;50.820;4.548;2023-05-31T10:39:59;3.87;;;2.93;;
11582;SDS011;34299;50.820;4.548;2023-05-31T10:42:33;5.43;;;2.53;;
11582;SDS011;34299;50.820;4.548;2023-05-31T10:45:04;4.90;;;2.60;;
11582;SDS011;34299;50.820;4.548;2023-05-31T10:47:45;3.80;;;2.70;;
11582;SDS011;34299;50.820;4.548;2023-05-31T10:50:18;5.23;;;2.33;;
11582;SDS011;34299;50.820;4.548;2023-05-31T10:52:47;4.03;;;2.50;;
11582;SDS011;34299;50.820;4.548;2023-05-31T10:55:15;3.83;;;2.33;;
11582;SDS011;34299;50.820;4.548;2023-05-31T10:57:43;5.07;;;2.60;;
11582;SDS011;34299;50.820;4.548;2023-05-31T11:00:10;9.90;;;2.90;;
11582;SDS011;34299;50.820;4.548;2023-05-31T11:02:44;3.23;;;2.40;;
11582;SDS011;34299;50.820;4.548;2023-05-31T11:05:20;3.63;;;2.30;;
11582;SDS011;34299;50.820;4.548;2023-05-31T11:07:47;4.03;;;2.27;;
11582;SDS011;34299;50.820;4.548;2023-05-31T11:10:27;4.00;;;2.53;;
11582;SDS011;34299;50.820;4.548;2023-05-31T11:12:56;4.63;;;2.40;;
11582;SDS011;34299;50.820;4.548;2023-05-31T11:15:37;5.97;;;2.03;;
11582;SDS011;34299;50.820;4.548;2023-05-31T11:18:06;5.60;;;2.30;;
11582;SDS011;34299;50.820;4.548;2023-05-31T11:20:36;6.13;;;2.17;;
11582;SDS011;34299;50.820;4.548;2023-05-31T11:28:31;3.47;;;2.37;;
11582;SDS011;34299;50.820;4.548;2023-05-31T11:30:59;4.23;;;2.17;;
11582;SDS011;34299;50.820;4.548;2023-05-31T11:33:26;3.53;;;1.93;;
11582;SDS011;34299;50.820;4.548;2023-05-31T11:36:11;5.90;;;2.57;;
11582;SDS011;34299;50.820;4.548;2023-05-31T11:38:41;6.27;;;2.53;;
11582;SDS011;34299;50.820;4.548;2023-05-31T11:41:08;8.03;;;2.53;;
11582;SDS011;34299;50.820;4.548;2023-05-31T11:43:36;4.30;;;2.30;;
11582;SDS011;34299;50.820;4.548;2023-05-31T11:46:03;6.30;;;2.73;;
11582;SDS011;34299;50.820;4.548;2023-05-31T11:48:37;7.63;;;2.83;;
11582;SDS011;34299;50.820;4.548;2023-05-31T11:51:05;4.90;;;2.10;;
11582;SDS011;34299;50.820;4.548;2023-05-31T11:53:34;4.03;;;1.97;;
11582;SDS011;34299;50.820;4.548;2023-05-31T11:56:01;5.13;;;2.30;;
11582;SDS011;34299;50.820;4.548;2023-05-31T11:58:28;3.70;;;2.07;;
11582;SDS011;34299;50.820;4.548;2023-05-31T12:00:59;3.47;;;2.10;;
11582;SDS011;34299;50.820;4.548;2023-05-31T12:03:26;5.50;;;2.17;;
11582;SDS011;34299;50.820;4.548;2023-05-31T12:05:56;3.10;;;1.87;;
11582;SDS011;34299;50.820;4.548;2023-05-31T12:08:25;7.63;;;2.67;;
11582;SDS011;34299;50.820;4.548;2023-05-31T12:11:00;2.90;;;2.13;;
11582;SDS011;34299;50.820;4.548;2023-05-31T12:13:28;3.70;;;1.83;;
11582;SDS011;34299;50.820;4.548;2023-05-31T12:15:55;4.50;;;2.03;;
11582;SDS011;34299;50.820;4.548;2023-05-31T12:18:22;2.63;;;2.10;;
11582;SDS011;34299;50.820;4.548;2023-05-31T12:20:49;3.60;;;2.10;;
11582;SDS011;34299;50.820;4.548;2023-05-31T12:23:17;4.10;;;2.00;;
11582;SDS011;34299;50.820;4.548;2023-05-31T12:25:45;3.03;;;2.10;;
11582;SDS011;34299;50.820;4.548;2023-05-31T12:28:14;8.03;;;2.50;;
11582;SDS011;34299;50.820;4.548;2023-05-31T12:30:43;4.60;;;2.13;;
11582;SDS011;34299;50.820;4.548;2023-05-31T12:33:10;5.67;;;2.20;;
11582;SDS011;34299;50.820;4.548;2023-05-31T12:35:41;4.43;;;2.10;;
11582;SDS011;34299;50.820;4.548;2023-05-31T12:38:09;4.07;;;1.97;;
11582;SDS011;34299;50.820;4.548;2023-05-31T12:40:36;5.97;;;2.13;;
11582;SDS011;34299;50.820;4.548;2023-05-31T12:43:04;3.67;;;2.27;;
11582;SDS011;34299;50.820;4.548;2023-05-31T12:45:33;4.13;;;1.97;;
11582;SDS011;34299;50.820;4.548;2023-05-31T12:48:04;8.30;;;3.07;;
11582;SDS011;34299;50.820;4.548;2023-05-31T12:50:33;7.00;;;2.20;;
11582;SDS011;34299;50.820;4.548;2023-05-31T12:53:00;3.73;;;1.63;;
11582;SDS011;34299;50.820;4.548;2023-05-31T12:55:28;1.90;;;1.50;;
11582;SDS011;34299;50.820;4.548;2023-05-31T12:57:55;4.63;;;2.37;;
11582;SDS011;34299;50.820;4.548;2023-05-31T13:00:23;4.00;;;2.20;;
11582;SDS011;34299;50.820;4.548;2023-05-31T13:02:52;3.30;;;2.10;;
11582;SDS011;34299;50.820;4.548;2023-05-31T13:05:19;6.23;;;2.53;;
11582;SDS011;34299;50.820;4.548;2023-05-31T13:07:46;6.07;;;2.47;;
11582;SDS011;34299;50.820;4.548;2023-05-31T13:10:13;7.40;;;2.50;;
11582;SDS011;34299;50.820;4.548;2023-05-31T13:12:41;6.10;;;2.40;;
11582;SDS011;34299;50.820;4.548;2023-05-31T13:15:08;3.47;;;2.27;;
11582;SDS011;34299;50.820;4.548;2023-05-31T13:17:36;5.63;;;2.50;;
11582;SDS011;34299;50.820;4.548;2023-05-31T13:20:05;5.80;;;2.30;;
11582;SDS011;34299;50.820;4.548;2023-05-31T13:22:32;5.27;;;2.53;;
11582;SDS011;34299;50.820;4.548;2023-05-31T13:24:59;5.20;;;2.23;;
11582;SDS011;34299;50.820;4.548;2023-05-31T13:27:28;4.37;;;2.23;;
11582;SDS011;34299;50.820;4.548;2023-05-31T13:29:55;6.33;;;2.50;;
11582;SDS011;34299;50.820;4.548;2023-05-31T13:32:22;6.23;;;2.20;;
11582;SDS011;34299;50.820;4.548;2023-05-31T13:34:50;4.83;;;2.43;;
11582;SDS011;34299;50.820;4.548;2023-05-31T13:37:18;4.30;;;1.80;;
11582;SDS011;34299;50.820;4.548;2023-05-31T13:39:46;4.67;;;2.10;;
11582;SDS011;34299;50.820;4.548;2023-05-31T13:42:14;3.57;;;2.10;;
11582;SDS011;34299;50.820;4.548;2023-05-31T13:44:41;6.63;;;2.10;;
11582;SDS011;34299;50.820;4.548;2023-05-31T13:47:08;6.67;;;2.37;;
11582;SDS011;34299;50.820;4.548;2023-05-31T13:49:36;3.20;;;1.90;;
11582;SDS011;34299;50.820;4.548;2023-05-31T13:52:03;5.83;;;2.27;;
11582;SDS011;34299;50.820;4.548;2023-05-31T13:54:34;5.97;;;2.03;;
11582;SDS011;34299;50.820;4.548;2023-05-31T13:57:01;3.10;;;2.47;;
11582;SDS011;34299;50.820;4.548;2023-05-31T13:59:28;3.07;;;2.40;;
11582;SDS011;34299;50.820;4.548;2023-05-31T14:01:56;7.60;;;2.40;;
11582;SDS011;34299;50.820;4.548;2023-05-31T14:04:23;7.77;;;2.40;;
11582;SDS011;34299;50.820;4.548;2023-05-31T14:06:51;3.97;;;1.87;;
11582;SDS011;34299;50.820;4.548;2023-05-31T14:09:18;3.73;;;2.00;;
11582;SDS011;34299;50.820;4.548;2023-05-31T14:11:47;3.77;;;2.70;;
11582;SDS011;34299;50.820;4.548;2023-05-31T14:14:14;5.23;;;2.50;;
11582;SDS011;34299;50.820;4.548;2023-05-31T14:16:41;5.17;;;2.13;;
11582;SDS011;34299;50.820;4.548;2023-05-31T14:19:08;5.03;;;1.83;;
11582;SDS011;34299;50.820;4.548;2023-05-31T14:21:36;6.73;;;2.17;;
11582;SDS011;34299;50.820;4.548;2023-05-31T14:24:03;3.83;;;2.17;;
11582;SDS011;34299;50.820;4.548;2023-05-31T14:26:30;3.80;;;2.20;;
11582;SDS011;34299;50.820;4.548;2023-05-31T14:28:59;4.60;;;1.90;;
11582;SDS011;34299;50.820;4.548;2023-05-31T14:31:26;5.83;;;2.00;;
11582;SDS011;34299;50.820;4.548;2023-05-31T14:33:53;5.50;;;1.80;;
11582;SDS011;34299;50.820;4.548;2023-05-31T14:36:20;3.67;;;1.97;;
11582;SDS011;34299;50.820;4.548;2023-05-31T14:38:48;2.90;;;2.00;;
11582;SDS011;34299;50.820;4.548;2023-05-31T14:41:15;4.33;;;1.70;;
11582;SDS011;34299;50.820;4.548;2023-05-31T14:43:42;3.03;;;1.93;;
11582;SDS011;34299;50.820;4.548;2023-05-31T14:46:12;4.53;;;1.80;;
11582;SDS011;34299;50.820;4.548;2023-05-31T14:48:40;2.77;;;1.70;;
11582;SDS011;34299;50.820;4.548;2023-05-31T14:51:07;6.23;;;2.10;;
11582;SDS011;34299;50.820;4.548;2023-05-31T14:53:34;3.50;;;1.97;;
11582;SDS011;34299;50.820;4.548;2023-05-31T14:56:02;4.10;;;1.70;;